Time;durP1;ratioP1;P1;durP2;ratioP2;P2;SDS_P1;SDS_P2;PMS_P1;PMS_P2;Temp;Humidity;BMP_temperature;BMP_pressure;BME280_temperature;BME280_humidity;BME280_pressure;Samples;Min_cycle;Max_cycle;Signal;HPM_P1;HPM_P2
2023/07/11 00:00:32;;;;;;;5.22;2.40;;;;;;;21.69;58.36;101403.00;3532208;40;20101;-63
2023/07/11 00:02:58;;;;;;;5.28;2.80;;;;;;;21.62;58.17;101406.50;3529473;40;20388;-63
2023/07/11 00:05:23;;;;;;;4.82;2.30;;;;;;;21.51;58.68;101402.97;3529708;40;20063;-63
2023/07/11 00:07:49;;;;;;;3.45;2.40;;;;;;;21.38;59.28;101405.19;3530779;40;20126;-63
2023/07/11 00:10:18;;;;;;;4.03;2.50;;;;;;;21.31;59.32;101399.44;3529655;40;20054;-63
2023/07/11 00:12:44;;;;;;;9.00;2.80;;;;;;;21.25;60.19;101391.84;3533181;40;20073;-63
2023/07/11 00:15:13;;;;;;;4.38;2.25;;;;;;;21.21;60.31;101392.25;3529102;40;20329;-62
2023/07/11 00:17:39;;;;;;;5.65;2.53;;;;;;;21.17;60.60;101390.84;3531415;40;20074;-63
2023/07/11 00:20:08;;;;;;;6.07;2.72;;;;;;;21.13;60.57;101389.44;3528721;40;20303;-62
2023/07/11 00:22:35;;;;;;;5.00;2.60;;;;;;;21.09;61.47;101387.00;3531828;40;20635;-64
2023/07/11 00:25:00;;;;;;;5.50;3.40;;;;;;;21.04;61.44;101378.38;3531302;40;20070;-63
2023/07/11 00:27:26;;;;;;;9.05;4.47;;;;;;;21.00;62.18;101387.03;3533148;40;20369;-63
2023/07/11 00:29:52;;;;;;;8.70;5.10;;;;;;;20.94;62.95;101385.75;3535960;40;20384;-64
2023/07/11 00:32:19;;;;;;;6.45;3.90;;;;;;;20.84;62.27;101379.47;3529775;40;20066;-63
2023/07/11 00:34:44;;;;;;;9.00;3.83;;;;;;;20.80;63.33;101381.59;3532302;40;20061;-63
2023/07/11 00:37:10;;;;;;;8.32;3.80;;;;;;;20.68;63.58;101384.66;3530027;40;20055;-62
2023/07/11 00:39:37;;;;;;;4.70;3.00;;;;;;;20.59;64.49;101380.97;3532524;40;20422;-63
2023/07/11 00:42:08;;;;;;;3.60;2.92;;;;;;;20.55;64.75;101369.47;3532850;40;20125;-63
2023/07/11 00:44:55;;;;;;;5.55;3.10;;;;;;;20.44;65.30;101355.94;3535188;40;20062;-62
2023/07/11 00:47:25;;;;;;;11.13;3.58;;;;;;;20.51;65.19;101373.47;3536316;40;20066;-63
2023/07/11 00:50:01;;;;;;;6.15;3.40;;;;;;;20.50;65.61;101370.88;3521224;40;20077;-63
2023/07/11 00:52:28;;;;;;;5.30;3.50;;;;;;;20.48;64.93;101371.00;3528846;40;20395;-62
2023/07/11 00:55:02;;;;;;;6.90;3.38;;;;;;;20.44;65.53;101366.00;3532677;40;20066;-63
2023/07/11 00:57:36;;;;;;;6.30;3.38;;;;;;;20.33;66.12;101370.59;3533481;40;20129;-62
2023/07/11 01:00:04;;;;;;;9.25;3.30;;;;;;;20.31;65.85;101369.03;3533482;40;20123;-62
2023/07/11 01:02:32;;;;;;;5.30;3.05;;;;;;;20.30;66.02;101370.03;3533068;40;20062;-63
2023/07/11 01:05:00;;;;;;;6.57;3.25;;;;;;;20.29;65.89;101373.75;3522983;40;20058;-63
2023/07/11 01:07:35;;;;;;;6.32;3.35;;;;;;;20.28;66.66;101377.50;3533209;40;20064;-63
2023/07/11 01:10:02;;;;;;;8.32;3.75;;;;;;;20.22;66.57;101368.00;3532153;40;20054;-63
2023/07/11 01:12:28;;;;;;;8.93;3.60;;;;;;;20.23;66.17;101379.78;3533458;40;20093;-63
2023/07/11 01:14:53;;;;;;;9.27;3.88;;;;;;;20.21;65.49;101377.22;3533649;40;20055;-63
2023/07/11 01:17:34;;;;;;;11.10;3.35;;;;;;;20.18;65.11;101370.19;3532109;40;20094;-63
2023/07/11 01:20:05;;;;;;;7.18;3.20;;;;;;;20.09;65.12;101368.31;3530624;40;20082;-62
2023/07/11 01:22:35;;;;;;;13.73;3.55;;;;;;;20.15;64.95;101373.19;3531213;40;20063;-63
2023/07/11 01:25:14;;;;;;;6.40;3.03;;;;;;;20.08;64.84;101366.59;3528941;40;20523;-62
2023/07/11 01:27:45;;;;;;;8.35;3.47;;;;;;;20.08;65.49;101371.19;3524456;40;20143;-64
2023/07/11 01:30:18;;;;;;;11.27;3.75;;;;;;;20.03;65.19;101368.88;3530209;40;20057;-63
2023/07/11 01:32:44;;;;;;;5.50;3.08;;;;;;;19.93;66.13;101357.09;3531137;40;20089;-63
2023/07/11 01:35:10;;;;;;;8.93;3.47;;;;;;;19.94;65.53;101353.34;3529350;40;20051;-62
2023/07/11 01:37:36;;;;;;;8.18;3.28;;;;;;;19.93;66.42;101355.22;3529175;40;20505;-63
2023/07/11 01:40:05;;;;;;;5.78;3.28;;;;;;;19.91;66.12;101351.78;3530855;40;20062;-62
2023/07/11 01:42:32;;;;;;;7.47;3.45;;;;;;;19.90;65.79;101346.47;3533347;40;20057;-63
2023/07/11 01:44:58;;;;;;;7.70;3.47;;;;;;;19.84;66.68;101342.44;3531960;40;20055;-63
2023/07/11 01:47:23;;;;;;;5.10;3.17;;;;;;;19.80;66.54;101345.59;3530962;40;20143;-63
2023/07/11 01:49:49;;;;;;;6.57;3.40;;;;;;;19.70;66.64;101338.28;3521360;40;20058;-62
2023/07/11 01:52:20;;;;;;;5.90;3.20;;;;;;;19.65;67.83;101340.53;3528822;40;20069;-63
2023/07/11 01:54:48;;;;;;;8.25;3.25;;;;;;;19.61;67.78;101336.34;3531373;40;20118;-63
2023/07/11 01:57:14;;;;;;;5.13;3.20;;;;;;;19.43;68.57;101302.59;3530353;40;20106;-63
2023/07/11 01:59:40;;;;;;;5.60;3.47;;;;;;;19.55;69.53;101328.72;3530829;40;20070;-63
2023/07/11 02:02:09;;;;;;;5.55;3.42;;;;;;;19.56;69.48;101325.00;3532415;40;20074;-63
2023/07/11 02:04:37;;;;;;;10.00;3.95;;;;;;;19.56;70.04;101326.88;3531003;40;20357;-63
2023/07/11 02:07:05;;;;;;;7.00;4.15;;;;;;;19.53;69.97;101328.00;3532246;40;20062;-63
2023/07/11 02:09:31;;;;;;;10.05;6.75;;;;;;;19.48;69.35;101325.72;3528838;40;20473;-63
2023/07/11 02:11:58;;;;;;;8.93;5.35;;;;;;;19.42;68.38;101318.09;3531961;40;20050;-61
2023/07/11 02:14:24;;;;;;;7.63;5.00;;;;;;;19.41;68.08;101316.38;3530652;40;20089;-62
2023/07/11 02:16:52;;;;;;;9.63;5.43;;;;;;;19.35;68.31;101308.75;3532955;40;20402;-62
2023/07/11 02:19:22;;;;;;;9.48;6.03;;;;;;;19.32;69.92;101302.72;3532186;40;20069;-62
2023/07/11 02:21:49;;;;;;;9.15;6.35;;;;;;;19.21;70.67;101290.91;3532599;40;20311;-62
2023/07/11 02:24:17;;;;;;;11.93;6.97;;;;;;;19.24;70.27;101296.09;3521962;40;20085;-62
2023/07/11 02:26:43;;;;;;;9.80;7.53;;;;;;;19.19;70.57;101292.09;3531645;40;20065;-63
2023/07/11 02:29:09;;;;;;;10.70;7.72;;;;;;;19.17;70.87;101286.75;3533255;40;20049;-63
2023/07/11 02:31:37;;;;;;;10.60;7.03;;;;;;;19.12;70.16;101291.75;3529113;40;20057;-63
2023/07/11 02:34:04;;;;;;;10.05;6.50;;;;;;;19.08;71.04;101287.59;3532814;40;20069;-62
2023/07/11 02:36:31;;;;;;;11.43;5.85;;;;;;;18.98;71.32;101273.06;3530441;40;20054;-63
2023/07/11 02:38:57;;;;;;;9.48;5.15;;;;;;;19.03;70.59;101270.81;3530877;40;20066;-62
2023/07/11 02:41:25;;;;;;;5.57;4.65;;;;;;;19.05;71.18;101285.13;3530803;40;20133;-64
2023/07/11 02:43:51;;;;;;;7.28;4.32;;;;;;;19.06;70.35;101273.25;3531230;40;20051;-63
2023/07/11 02:46:17;;;;;;;4.90;4.30;;;;;;;19.01;71.53;101267.34;3529300;40;20129;-63
2023/07/11 02:48:44;;;;;;;8.55;4.55;;;;;;;18.99;71.58;101272.91;3533177;40;20492;-63
2023/07/11 02:51:10;;;;;;;7.20;3.90;;;;;;;18.94;72.00;101266.19;3527518;40;20069;-63
2023/07/11 02:53:37;;;;;;;6.22;4.10;;;;;;;18.87;72.05;101256.81;3529863;40;20054;-63
2023/07/11 02:56:03;;;;;;;6.35;4.10;;;;;;;18.79;71.60;101252.94;3534187;40;20053;-63
2023/07/11 02:58:29;;;;;;;5.60;3.88;;;;;;;18.86;71.51;101263.28;3531022;40;20472;-63
2023/07/11 03:00:58;;;;;;;7.10;3.97;;;;;;;18.86;72.40;101255.09;3530755;40;20075;-62
2023/07/11 03:03:24;;;;;;;5.50;3.40;;;;;;;18.84;72.87;101248.91;3534197;40;20061;-62
2023/07/11 03:05:52;;;;;;;7.38;3.67;;;;;;;18.82;72.68;101240.03;3529182;40;20070;-62
2023/07/11 03:08:18;;;;;;;7.05;3.42;;;;;;;18.80;72.09;101242.91;3529625;40;20050;-62
2023/07/11 03:10:44;;;;;;;5.53;3.20;;;;;;;18.79;72.07;101239.31;3530670;40;20054;-62
2023/07/11 03:13:10;;;;;;;6.38;2.95;;;;;;;18.78;72.99;101240.31;3530453;40;20070;-62
2023/07/11 03:15:38;;;;;;;6.85;3.70;;;;;;;18.64;72.88;101210.69;3529645;40;20057;-63
2023/07/11 03:18:06;;;;;;;6.45;3.50;;;;;;;18.78;72.58;101234.88;3534165;40;20287;-63
2023/07/11 03:20:37;;;;;;;4.65;3.42;;;;;;;18.82;71.67;101223.69;3531148;40;20400;-63
2023/07/11 03:23:03;;;;;;;5.93;3.30;;;;;;;18.81;71.72;101227.41;3530752;40;20058;-63
2023/07/11 03:25:28;;;;;;;7.18;3.75;;;;;;;18.89;71.82;101230.31;3530447;40;20342;-64
2023/07/11 03:27:54;;;;;;;6.28;3.60;;;;;;;18.90;71.24;101222.03;3530248;40;20074;-64
2023/07/11 03:30:20;;;;;;;7.30;3.72;;;;;;;18.88;71.54;101221.28;3532758;40;20293;-63
2023/07/11 03:32:45;;;;;;;5.22;3.38;;;;;;;18.89;71.27;101219.41;3522470;40;20201;-63
2023/07/11 03:35:11;;;;;;;4.93;3.42;;;;;;;18.88;71.73;101218.56;3530943;40;20075;-64
2023/07/11 03:37:36;;;;;;;7.68;3.53;;;;;;;18.91;71.11;101225.59;3528859;40;20054;-64
2023/07/11 03:40:03;;;;;;;6.10;3.70;;;;;;;18.72;70.84;101191.84;3529948;40;20069;-63
2023/07/11 03:42:29;;;;;;;4.65;3.65;;;;;;;18.95;71.28;101217.00;3531489;40;20064;-63
2023/07/11 03:44:55;;;;;;;5.03;3.60;;;;;;;18.92;70.45;101210.97;3531311;40;20062;-63
2023/07/11 03:47:21;;;;;;;6.03;3.50;;;;;;;19.01;70.31;101226.47;3533626;40;20098;-63
2023/07/11 03:49:46;;;;;;;5.35;3.38;;;;;;;18.90;70.71;101200.22;3533087;40;20062;-64
2023/07/11 03:52:12;;;;;;;3.92;3.30;;;;;;;19.04;69.80;101212.56;3528403;40;20074;-64
2023/07/11 03:54:38;;;;;;;5.05;3.30;;;;;;;19.00;70.08;101211.13;3530102;40;20057;-63
2023/07/11 03:57:04;;;;;;;5.53;3.63;;;;;;;19.05;70.60;101208.84;3530522;40;20058;-63
2023/07/11 03:59:30;;;;;;;4.53;3.70;;;;;;;19.09;69.36;101204.81;3529947;40;21524;-63
2023/07/11 04:01:56;;;;;;;3.63;3.20;;;;;;;19.16;69.18;101205.16;3528428;40;20132;-63
2023/07/11 04:04:22;;;;;;;10.48;8.07;;;;;;;19.18;68.47;101212.16;3529105;40;20058;-62
2023/07/11 04:06:48;;;;;;;9.25;5.57;;;;;;;19.18;68.81;101203.97;3524058;40;20413;-65
2023/07/11 04:09:14;;;;;;;6.55;3.70;;;;;;;19.23;69.12;101204.44;3528285;40;20070;-63
2023/07/11 04:11:39;;;;;;;5.57;3.30;;;;;;;19.27;68.15;101198.69;3531528;40;20107;-63
2023/07/11 04:14:06;;;;;;;5.10;3.25;;;;;;;19.26;67.91;101192.38;3529857;40;20566;-63
2023/07/11 04:16:31;;;;;;;5.82;3.35;;;;;;;19.34;67.31;101195.25;3532641;40;20055;-63
2023/07/11 04:18:57;;;;;;;6.10;3.20;;;;;;;19.41;67.41;101203.69;3528565;40;20116;-64
2023/07/11 04:21:23;;;;;;;5.03;3.22;;;;;;;19.44;67.41;101198.84;3530746;40;20286;-64
2023/07/11 04:23:49;;;;;;;5.05;3.13;;;;;;;19.52;67.38;101195.41;3528483;40;20054;-63
2023/07/11 04:26:15;;;;;;;4.32;3.20;;;;;;;19.57;67.02;101192.22;3527816;40;20475;-64
2023/07/11 04:28:41;;;;;;;4.57;2.90;;;;;;;19.63;66.95;101188.91;3529890;40;20058;-63
2023/07/11 04:31:06;;;;;;;7.18;3.60;;;;;;;19.62;66.05;101190.78;3527168;40;20170;-64
2023/07/11 04:33:32;;;;;;;5.25;3.17;;;;;;;19.68;65.74;101183.94;3528417;40;20105;-64
2023/07/11 04:36:10;;;;;;;4.40;2.95;;;;;;;19.69;66.44;101177.47;3530620;40;20211;-63
2023/07/11 04:38:37;;;;;;;5.53;3.25;;;;;;;19.72;65.85;101190.81;3529528;40;20054;-64
2023/07/11 04:41:05;;;;;;;6.07;3.05;;;;;;;19.77;66.14;101172.16;3527806;40;20066;-63
2023/07/11 04:43:33;;;;;;;6.22;2.83;;;;;;;19.87;65.47;101183.91;3527150;40;20070;-64
2023/07/11 04:46:01;;;;;;;5.13;3.10;;;;;;;19.92;64.87;101180.75;3528607;40;20065;-63
2023/07/11 04:48:26;;;;;;;4.82;3.17;;;;;;;19.97;64.75;101181.16;3527555;40;20066;-63
2023/07/11 04:50:58;;;;;;;4.82;3.03;;;;;;;19.93;63.64;101172.41;3530182;40;20108;-64
2023/07/11 04:53:26;;;;;;;4.18;3.10;;;;;;;20.05;63.78;101170.38;3528700;40;20062;-63
2023/07/11 04:56:01;;;;;;;3.92;2.63;;;;;;;20.03;62.91;101161.47;3530570;40;20069;-64
2023/07/11 04:58:29;;;;;;;4.82;2.72;;;;;;;20.04;62.66;101146.78;3528671;40;20054;-63
2023/07/11 05:01:07;;;;;;;4.22;2.40;;;;;;;20.21;62.19;101163.44;3530886;40;20338;-63
2023/07/11 05:03:33;;;;;;;6.85;2.65;;;;;;;20.28;61.76;101165.41;3529189;40;20073;-63
2023/07/11 05:06:03;;;;;;;5.80;2.78;;;;;;;20.37;61.95;101163.66;3530615;40;20527;-63
2023/07/11 05:08:29;;;;;;;4.47;2.60;;;;;;;20.41;61.61;101156.88;3518644;40;20255;-62
2023/07/11 05:11:11;;;;;;;10.38;2.85;;;;;;;20.45;61.51;101155.53;3527382;40;20060;-62
2023/07/11 05:13:37;;;;;;;4.57;2.70;;;;;;;20.48;61.42;101148.94;3536393;40;20086;-62
2023/07/11 05:16:18;;;;;;;3.75;2.70;;;;;;;20.52;60.75;101145.78;3532994;40;20057;-63
2023/07/11 05:18:47;;;;;;;4.07;2.50;;;;;;;20.57;60.52;101143.44;3529164;40;20057;-62
2023/07/11 05:21:17;;;;;;;6.00;2.58;;;;;;;20.55;60.86;101131.81;3528990;40;20421;-62
2023/07/11 05:23:43;;;;;;;4.72;2.78;;;;;;;20.68;60.83;101149.69;3534201;40;20452;-62
2023/07/11 05:26:09;;;;;;;4.07;2.75;;;;;;;20.68;60.40;101136.03;3528246;40;20168;-62
2023/07/11 05:28:35;;;;;;;4.97;2.70;;;;;;;20.76;60.30;101141.63;3522914;40;20098;-61
2023/07/11 05:31:04;;;;;;;3.75;2.17;;;;;;;20.63;59.73;101115.50;3528472;40;20100;-62
2023/07/11 05:33:31;;;;;;;4.80;2.63;;;;;;;20.83;59.92;101145.44;3529634;40;20062;-61
2023/07/11 05:36:39;;;;;;;5.43;2.55;;;;;;;20.85;59.70;101135.22;3529747;40;20085;-61
2023/07/11 05:39:12;;;;;;;4.82;2.65;;;;;;;20.90;59.51;101137.47;3532183;40;20058;-60
2023/07/11 05:41:44;;;;;;;4.47;2.70;;;;;;;20.94;59.94;101134.31;3536045;40;20108;-60
2023/07/11 05:44:12;;;;;;;3.42;2.63;;;;;;;20.99;59.38;101126.47;3536070;40;20199;-60
2023/07/11 05:46:40;;;;;;;5.00;2.70;;;;;;;21.06;59.79;101133.06;3531793;40;20101;-61
2023/07/11 05:49:07;;;;;;;5.60;2.65;;;;;;;20.60;59.14;101060.34;3530571;40;20320;-60
2023/07/11 05:51:34;;;;;;;4.32;2.50;;;;;;;21.15;58.98;101127.66;3529556;40;20286;-61
2023/07/11 05:54:00;;;;;;;4.80;2.45;;;;;;;21.20;59.47;101128.06;3526100;40;20057;-61
2023/07/11 05:56:26;;;;;;;5.53;2.58;;;;;;;21.25;58.95;101131.16;3533358;40;20058;-61
2023/07/11 05:58:53;;;;;;;5.70;2.95;;;;;;;21.31;59.19;101125.97;3533503;40;20080;-60
2023/07/11 06:01:27;;;;;;;7.10;2.75;;;;;;;21.39;58.97;101111.50;3535425;40;20125;-61
2023/07/11 06:04:09;;;;;;;4.35;2.58;;;;;;;21.47;58.83;101119.81;3532235;40;20085;-61
2023/07/11 06:06:41;;;;;;;4.22;2.47;;;;;;;21.56;58.66;101110.59;3535291;40;20504;-62
2023/07/11 06:09:13;;;;;;;4.23;2.37;;;;;;;21.67;58.00;101105.91;3530444;40;20069;-62
2023/07/11 06:11:40;;;;;;;4.13;2.42;;;;;;;21.77;58.16;101110.25;3533960;40;20397;-62
2023/07/11 06:14:07;;;;;;;5.75;2.35;;;;;;;21.88;57.59;101100.06;3532439;40;20054;-62
2023/07/11 06:16:33;;;;;;;5.70;2.50;;;;;;;21.98;57.41;101104.41;3529611;40;20062;-62
2023/07/11 06:18:59;;;;;;;5.35;2.30;;;;;;;22.12;57.73;101107.56;3531371;40;20386;-63
2023/07/11 06:21:24;;;;;;;4.97;2.45;;;;;;;22.22;56.17;101102.84;3532811;40;20126;-62
2023/07/11 06:23:50;;;;;;;5.47;2.60;;;;;;;22.34;56.96;101101.53;3530909;40;20534;-62
2023/07/11 06:26:16;;;;;;;5.53;2.35;;;;;;;22.45;55.90;101103.97;3527454;40;20054;-63
2023/07/11 06:28:43;;;;;;;6.47;2.17;;;;;;;22.58;55.79;101102.63;3535573;40;20460;-62
2023/07/11 06:31:12;;;;;;;5.05;2.30;;;;;;;22.71;55.61;101094.81;3531536;40;20594;-63
2023/07/11 06:33:37;;;;;;;3.25;2.30;;;;;;;22.83;55.04;101101.66;3532184;40;20065;-63
2023/07/11 06:36:06;;;;;;;9.50;2.42;;;;;;;22.94;55.38;101092.31;3533410;40;20057;-63
2023/07/11 06:38:32;;;;;;;5.13;2.28;;;;;;;23.08;54.91;101088.03;3530012;40;20069;-63
2023/07/11 06:40:57;;;;;;;4.78;2.67;;;;;;;23.37;54.74;101104.88;3531967;40;20074;-62
2023/07/11 06:43:26;;;;;;;3.22;2.38;;;;;;;23.52;53.90;101107.75;3531094;40;20443;-63
2023/07/11 06:45:55;;;;;;;4.15;2.33;;;;;;;23.68;53.11;101101.38;3530554;40;20066;-62
2023/07/11 06:48:24;;;;;;;4.00;2.40;;;;;;;23.83;53.23;101099.69;3529553;40;20320;-63
2023/07/11 06:50:54;;;;;;;5.03;2.20;;;;;;;23.96;51.71;101110.13;3530583;40;20308;-62
2023/07/11 06:53:23;;;;;;;5.43;2.20;;;;;;;23.98;50.80;101085.25;3532438;40;20403;-62
2023/07/11 06:55:53;;;;;;;8.40;2.38;;;;;;;24.17;50.57;101092.19;3534161;40;20061;-63
2023/07/11 06:58:20;;;;;;;3.92;2.13;;;;;;;24.30;50.07;101096.09;3524942;40;20113;-62
2023/07/11 07:01:04;;;;;;;6.30;2.20;;;;;;;24.40;49.15;101098.63;3529127;40;20069;-63
2023/07/11 07:03:32;;;;;;;4.60;2.08;;;;;;;24.50;48.93;101090.22;3532168;40;20066;-63
2023/07/11 07:06:12;;;;;;;6.93;2.00;;;;;;;24.58;48.29;101073.69;3528207;40;20067;-63
2023/07/11 07:08:39;;;;;;;5.68;2.30;;;;;;;24.82;48.77;101091.06;3531992;40;20325;-63
2023/07/11 07:11:05;;;;;;;3.58;2.35;;;;;;;24.93;47.45;101097.00;3532072;40;20058;-63
2023/07/11 07:13:31;;;;;;;4.80;2.30;;;;;;;25.08;47.70;101091.56;3533040;40;20477;-63
2023/07/11 07:16:00;;;;;;;5.05;2.50;;;;;;;25.22;47.25;101098.19;3530611;40;20070;-63
2023/07/11 07:18:35;;;;;;;4.53;2.00;;;;;;;24.83;47.41;101013.00;3533611;40;20050;-63
2023/07/11 07:21:03;;;;;;;4.82;2.38;;;;;;;25.41;47.39;101086.69;3529070;40;20168;-63
2023/07/11 07:23:29;;;;;;;5.57;2.00;;;;;;;25.54;46.78;101094.31;3521125;40;20054;-62
2023/07/11 07:25:59;;;;;;;3.03;1.70;;;;;;;25.65;45.60;101091.09;3531229;40;20054;-63
2023/07/11 07:28:27;;;;;;;5.13;2.33;;;;;;;25.78;45.84;101095.09;3529556;40;20066;-63
2023/07/11 07:30:56;;;;;;;5.75;2.08;;;;;;;25.92;45.13;101088.78;3531664;40;20086;-62
2023/07/11 07:33:24;;;;;;;3.97;2.03;;;;;;;25.99;44.29;101086.97;3523033;40;20675;-63
2023/07/11 07:35:59;;;;;;;3.72;2.20;;;;;;;26.11;45.04;101090.97;3533934;40;20062;-63
2023/07/11 07:38:27;;;;;;;4.53;1.88;;;;;;;26.22;44.04;101092.38;3532890;40;20054;-62
2023/07/11 07:40:55;;;;;;;4.18;2.05;;;;;;;26.37;43.93;101081.34;3531854;40;20057;-62
2023/07/11 07:43:21;;;;;;;3.28;2.08;;;;;;;26.49;42.61;101081.75;3533005;40;20070;-62
2023/07/11 07:45:48;;;;;;;4.90;2.03;;;;;;;26.61;43.57;101074.69;3532940;40;20054;-61
2023/07/11 07:48:14;;;;;;;5.47;1.98;;;;;;;26.63;42.52;101078.94;3525247;40;20094;-62
2023/07/11 07:50:39;;;;;;;3.10;1.88;;;;;;;26.70;41.82;101067.13;3525005;40;20401;-62
2023/07/11 07:53:05;;;;;;;5.25;1.90;;;;;;;26.88;42.79;101066.72;3528043;40;20413;-62
2023/07/11 07:55:35;;;;;;;2.88;1.80;;;;;;;27.02;41.02;101074.06;3537451;40;20062;-64
2023/07/11 07:58:01;;;;;;;4.82;1.70;;;;;;;27.05;41.71;101060.75;3533684;40;20054;-64
2023/07/11 08:00:26;;;;;;;3.85;2.05;;;;;;;27.18;40.76;101064.69;3531834;40;20065;-61
2023/07/11 08:02:52;;;;;;;4.88;2.00;;;;;;;27.32;40.89;101066.53;3531888;40;20058;-62
2023/07/11 08:05:18;;;;;;;2.75;1.60;;;;;;;27.52;42.96;101073.06;3533026;40;20381;-62
2023/07/11 08:07:44;;;;;;;4.88;2.13;;;;;;;27.58;40.02;101062.28;3535587;40;20053;-62
2023/07/11 08:10:10;;;;;;;5.90;2.15;;;;;;;27.45;40.79;101058.34;3533184;40;20699;-62
2023/07/11 08:12:35;;;;;;;5.30;1.90;;;;;;;27.30;41.19;101057.59;3532685;40;20061;-62
2023/07/11 08:15:06;;;;;;;3.30;1.88;;;;;;;27.24;40.79;101059.22;3532030;40;20061;-63
2023/07/11 08:17:31;;;;;;;5.45;1.73;;;;;;;27.37;41.11;101064.03;3529074;40;20057;-62
2023/07/11 08:19:57;;;;;;;7.93;1.75;;;;;;;27.55;39.66;101058.84;3534092;40;20050;-62
2023/07/11 08:22:23;;;;;;;3.90;1.77;;;;;;;27.65;40.29;101061.25;3529151;40;20054;-62
2023/07/11 08:24:48;;;;;;;4.10;1.63;;;;;;;27.76;39.86;101062.63;3527580;40;20074;-62
2023/07/11 08:27:14;;;;;;;5.18;1.73;;;;;;;27.79;40.20;101040.16;3531467;40;20055;-62
2023/07/11 08:29:44;;;;;;;5.10;2.20;;;;;;;27.94;39.69;101054.69;3529120;40;20067;-62
2023/07/11 08:32:11;;;;;;;2.30;1.60;;;;;;;28.16;39.72;101051.81;3520332;40;20065;-63
2023/07/11 08:34:37;;;;;;;3.97;1.80;;;;;;;28.06;39.27;101001.59;3534766;40;20071;-63
2023/07/11 08:37:03;;;;;;;4.70;1.70;;;;;;;28.51;38.90;101049.88;3530175;40;20062;-63
2023/07/11 08:39:28;;;;;;;5.03;1.90;;;;;;;28.69;38.93;101043.75;3530353;40;20109;-63
2023/07/11 08:41:55;;;;;;;2.80;1.60;;;;;;;28.78;39.02;101045.28;3530561;40;20306;-63
2023/07/11 08:44:47;;;;;;;3.88;1.85;;;;;;;28.98;38.16;101041.69;3532784;40;20262;-63
2023/07/11 08:47:30;;;;;;;5.43;1.90;;;;;;;29.20;38.31;101043.22;3530706;40;20062;-64
2023/07/11 08:50:02;;;;;;;6.28;1.92;;;;;;;29.22;37.75;101030.03;3531899;40;20640;-63
2023/07/11 08:52:32;;;;;;;3.20;1.80;;;;;;;29.26;37.16;101042.38;3530646;40;20077;-63
2023/07/11 08:55:08;;;;;;;3.90;1.98;;;;;;;29.23;37.75;101034.50;3533208;40;20141;-63
2023/07/11 08:57:45;;;;;;;4.43;2.00;;;;;;;29.36;37.06;101037.25;3534709;40;20477;-63
2023/07/11 09:00:18;;;;;;;4.57;1.58;;;;;;;29.41;37.41;101033.88;3531780;40;20068;-62
2023/07/11 09:03:24;;;;;;;5.82;2.50;;;;;;;29.43;37.72;101028.09;3534408;40;20097;-62
2023/07/11 09:06:12;;;;;;;4.30;1.88;;;;;;;29.76;37.79;101028.94;3530170;40;20325;-62
2023/07/11 09:08:45;;;;;;;4.47;1.80;;;;;;;29.99;36.89;101022.06;3531122;40;20110;-63
2023/07/11 09:11:34;;;;;;;4.90;2.00;;;;;;;29.99;36.53;101031.22;3529553;40;20310;-63
2023/07/11 09:14:24;;;;;;;5.60;2.00;;;;;;;29.70;36.62;101027.03;3532042;40;20062;-63
2023/07/11 09:17:02;;;;;;;5.38;1.95;;;;;;;29.44;37.08;101021.50;3533104;40;20118;-62
2023/07/11 09:19:54;;;;;;;4.50;2.00;;;;;;;29.41;37.53;101028.31;3532503;40;20054;-62
2023/07/11 09:23:16;;;;;;;4.32;1.88;;;;;;;29.61;37.62;101023.63;3535192;40;20132;-62
2023/07/11 09:25:46;;;;;;;2.92;2.00;;;;;;;29.75;36.96;101021.69;3529629;40;20059;-62
2023/07/11 09:28:24;;;;;;;4.95;1.98;;;;;;;29.95;37.68;101020.78;3530513;40;20355;-62
2023/07/11 09:31:00;;;;;;;3.33;1.70;;;;;;;30.08;36.53;101018.81;3531024;40;20085;-62
2023/07/11 09:33:54;;;;;;;5.72;2.10;;;;;;;29.66;37.45;100947.34;3528518;40;20042;-63
2023/07/11 09:36:39;;;;;;;4.38;1.98;;;;;;;30.07;36.10;101017.13;3529187;40;20057;-62
2023/07/11 09:39:29;;;;;;;6.55;1.83;;;;;;;30.28;35.68;101017.91;3528712;40;20054;-63
2023/07/11 09:42:22;;;;;;;3.80;2.10;;;;;;;30.15;34.86;101017.94;3530766;40;20576;-62
2023/07/11 09:44:59;;;;;;;2.90;2.05;;;;;;;29.99;34.76;101027.59;3534022;40;20314;-63
2023/07/11 09:47:30;;;;;;;4.57;2.20;;;;;;;29.91;35.29;101020.38;3532453;40;20054;-63
2023/07/11 09:49:59;;;;;;;3.33;2.30;;;;;;;29.82;34.50;101018.91;3531101;40;20055;-62
2023/07/11 09:52:28;;;;;;;5.43;1.85;;;;;;;29.77;35.99;101007.63;3530160;40;20333;-62
2023/07/11 09:54:55;;;;;;;4.10;2.10;;;;;;;30.09;36.04;101014.13;3530390;40;20052;-62
2023/07/11 09:57:21;;;;;;;5.03;2.20;;;;;;;30.33;34.69;101003.41;3533225;40;20062;-63
2023/07/11 10:00:03;;;;;;;5.07;2.30;;;;;;;30.26;35.65;101009.81;3531419;40;20419;-62
2023/07/11 10:02:29;;;;;;;8.95;3.75;;;;;;;30.34;35.96;101002.31;3532846;40;20068;-62
2023/07/11 10:04:56;;;;;;;5.45;3.00;;;;;;;30.34;35.62;100999.53;3531962;40;20054;-62
2023/07/11 10:07:28;;;;;;;3.33;2.08;;;;;;;30.28;36.54;101004.03;3531249;40;20121;-63
2023/07/11 10:10:05;;;;;;;2.75;2.00;;;;;;;30.24;36.01;101000.88;3530169;40;20050;-63
2023/07/11 10:12:31;;;;;;;35.67;13.73;;;;;;;30.25;36.12;101002.56;3531803;40;20053;-62
2023/07/11 10:15:01;;;;;;;4.43;2.45;;;;;;;30.34;37.20;100999.53;3532133;40;20058;-63
2023/07/11 10:17:36;;;;;;;5.28;2.00;;;;;;;30.31;36.50;100992.50;3528846;40;20090;-63
2023/07/11 10:20:17;;;;;;;3.70;2.00;;;;;;;30.35;36.45;100990.13;3532387;40;20084;-63
2023/07/11 10:22:52;;;;;;;4.45;1.92;;;;;;;30.42;35.83;100990.97;3532421;40;20054;-62
2023/07/11 10:25:27;;;;;;;5.85;2.38;;;;;;;30.38;36.50;100989.69;3528576;40;20061;-61
2023/07/11 10:28:02;;;;;;;10.40;4.00;;;;;;;30.44;36.71;100980.50;3532517;40;20066;-62
2023/07/11 10:30:34;;;;;;;5.70;2.60;;;;;;;30.61;35.83;100981.69;3532689;40;20126;-63
2023/07/11 10:33:19;;;;;;;5.93;3.08;;;;;;;30.73;35.35;100993.78;3531419;40;20081;-62
2023/07/11 10:35:55;;;;;;;4.18;2.35;;;;;;;30.88;35.11;100976.81;3531981;40;20076;-62
2023/07/11 10:38:43;;;;;;;6.43;2.50;;;;;;;31.00;34.94;100968.59;3529107;40;20046;-62
2023/07/11 10:41:23;;;;;;;4.55;2.40;;;;;;;31.03;34.87;100972.88;3530037;40;20385;-63
2023/07/11 10:43:52;;;;;;;6.03;2.30;;;;;;;30.92;34.72;100966.97;3535015;40;20066;-63
2023/07/11 10:46:37;;;;;;;4.70;2.30;;;;;;;30.92;35.22;100966.09;3528646;40;20367;-63
2023/07/11 10:49:17;;;;;;;3.83;2.00;;;;;;;31.02;35.10;100937.81;3530756;40;20058;-63
2023/07/11 10:52:01;;;;;;;11.27;4.60;;;;;;;31.12;34.21;100960.41;3521008;40;20294;-63
2023/07/11 10:54:34;;;;;;;4.82;2.17;;;;;;;30.97;34.66;100961.56;3528892;40;20075;-63
2023/07/11 10:57:14;;;;;;;4.28;2.55;;;;;;;30.90;34.71;100955.22;3532172;40;20054;-63
2023/07/11 10:59:40;;;;;;;4.88;2.15;;;;;;;30.76;33.79;100954.47;3529662;40;20064;-63
2023/07/11 11:02:26;;;;;;;2.92;2.08;;;;;;;30.56;34.46;100939.03;3530694;40;20058;-63
2023/07/11 11:05:24;;;;;;;3.72;2.40;;;;;;;30.60;34.66;100951.38;3534729;40;20062;-63
2023/07/11 11:08:11;;;;;;;3.85;2.45;;;;;;;30.67;34.95;100950.25;3531469;40;20062;-63
2023/07/11 11:11:17;;;;;;;38.53;16.13;;;;;;;31.11;35.49;100945.63;3531085;40;20137;-63
2023/07/11 11:14:02;;;;;;;5.57;2.67;;;;;;;31.49;34.45;100946.59;3531218;40;20306;-63
2023/07/11 11:16:37;;;;;;;4.93;2.17;;;;;;;31.53;34.53;100922.84;3528379;40;20050;-63
2023/07/11 11:19:28;;;;;;;11.52;5.32;;;;;;;31.66;34.50;100937.41;3531697;40;20388;-63
2023/07/11 11:22:08;;;;;;;3.95;1.60;;;;;;;31.78;33.64;100933.84;3531377;40;20390;-63
2023/07/11 11:24:45;;;;;;;23.33;8.85;;;;;;;31.86;34.13;100926.03;3529702;40;20340;-63
2023/07/11 11:27:50;;;;;;;4.65;2.28;;;;;;;31.92;32.53;100918.75;3533280;40;20414;-63
2023/07/11 11:30:48;;;;;;;2.38;1.80;;;;;;;31.76;34.19;100908.22;3530658;40;20061;-63
2023/07/11 11:33:43;;;;;;;3.33;2.03;;;;;;;31.37;33.24;100850.13;3525506;40;20124;-63
2023/07/11 11:36:48;;;;;;;4.28;1.92;;;;;;;31.95;33.41;100912.72;3524774;40;20062;-63
2023/07/11 11:39:36;;;;;;;3.67;1.90;;;;;;;32.16;31.64;100913.28;3530976;40;20058;-63
2023/07/11 11:42:20;;;;;;;3.65;2.30;;;;;;;32.29;32.58;100904.75;3529387;40;20055;-63